Time;durP1;ratioP1;P1;durP2;ratioP2;P2;SDS_P1;SDS_P2;PMS_P1;PMS_P2;Temp;Humidity;BMP_temperature;BMP_pressure;BME280_temperature;BME280_humidity;BME280_pressure;Samples;Min_cycle;Max_cycle;Signal;HPM_P1;HPM_P2
2022/01/04 00:02:12;;;;;;;28.50;7.80;;;;;;;8.46;92.05;100084.63;5096018;28;20073;-71
2022/01/04 00:04:38;;;;;;;17.75;7.85;;;;;;;8.59;92.18;100115.63;5095120;28;20020;-72
2022/01/04 00:07:03;;;;;;;26.13;7.80;;;;;;;8.62;92.29;100101.56;5095151;28;20055;-71
2022/01/04 00:09:29;;;;;;;23.38;8.13;;;;;;;8.57;92.31;100090.06;5095175;28;20428;-72
2022/01/04 00:14:20;;;;;;;27.05;8.82;;;;;;;8.51;92.13;100082.28;5095288;28;20031;-71
2022/01/04 00:16:46;;;;;;;26.27;8.80;;;;;;;8.54;92.50;100081.91;5094928;28;20493;-72
2022/01/04 00:19:11;;;;;;;18.80;7.80;;;;;;;8.62;92.63;100075.81;5094829;28;20427;-70
2022/01/04 00:21:38;;;;;;;23.88;8.57;;;;;;;8.58;92.54;100078.78;5076748;28;20020;-70
2022/01/04 00:24:04;;;;;;;23.90;9.32;;;;;;;8.60;91.87;100073.41;5076970;28;20019;-71
2022/01/04 00:26:30;;;;;;;24.85;8.43;;;;;;;8.53;92.29;100067.47;5094759;28;20028;-71
2022/01/04 00:28:55;;;;;;;26.45;8.55;;;;;;;8.51;92.52;100056.53;5094712;28;20026;-71
2022/01/04 00:31:20;;;;;;;29.90;9.45;;;;;;;8.52;92.96;100056.38;5093485;28;20116;-71
2022/01/04 00:33:49;;;;;;;23.90;8.25;;;;;;;8.51;93.30;100049.59;5076331;28;20166;-71
2022/01/04 00:36:14;;;;;;;21.20;8.88;;;;;;;8.45;92.82;100050.38;5076422;28;20494;-71
2022/01/04 00:38:40;;;;;;;26.25;9.02;;;;;;;8.52;93.25;100046.06;5094539;28;20028;-71
2022/01/04 00:41:05;;;;;;;19.80;9.13;;;;;;;8.57;92.91;100041.13;5094540;28;20055;-71
2022/01/04 00:43:31;;;;;;;23.88;9.32;;;;;;;8.50;92.73;100027.44;5094413;28;20474;-72
2022/01/04 00:45:57;;;;;;;20.90;8.80;;;;;;;8.50;92.46;100026.63;5094437;28;20535;-71
2022/01/04 00:50:47;;;;;;;16.70;8.98;;;;;;;8.62;92.14;100022.53;5094566;28;20118;-71
2022/01/04 00:53:13;;;;;;;25.65;9.65;;;;;;;8.63;92.79;100015.59;5076037;28;20024;-71
2022/01/04 00:55:39;;;;;;;28.27;9.90;;;;;;;8.61;92.32;100010.63;5094083;28;20059;-71
2022/01/04 00:58:05;;;;;;;24.02;8.98;;;;;;;8.51;92.99;100013.56;5094245;28;20035;-71
2022/01/04 01:00:31;;;;;;;22.90;8.60;;;;;;;8.51;92.67;100013.56;5094115;28;20027;-71
2022/01/04 01:02:57;;;;;;;22.67;8.95;;;;;;;8.51;92.66;100015.34;5075962;28;20115;-72
2022/01/04 01:05:24;;;;;;;19.40;9.07;;;;;;;8.39;93.21;100009.94;5075933;28;20028;-73
2022/01/04 01:07:50;;;;;;;23.40;9.02;;;;;;;8.40;93.34;100000.44;5075956;28;20119;-72
2022/01/04 01:12:41;;;;;;;22.67;8.93;;;;;;;8.43;92.90;99993.16;5093914;28;20363;-71
2022/01/04 01:15:08;;;;;;;21.17;9.15;;;;;;;8.46;92.97;99989.38;5093942;28;20027;-71
2022/01/04 01:17:34;;;;;;;22.17;9.32;;;;;;;8.41;93.34;99987.38;5093817;28;20114;-71
2022/01/04 01:20:00;;;;;;;20.33;8.85;;;;;;;8.41;93.46;99984.81;5075721;28;20119;-71
2022/01/04 01:22:26;;;;;;;20.40;8.88;;;;;;;8.40;92.62;99978.06;5093799;28;20032;-71
2022/01/04 01:24:51;;;;;;;21.45;8.98;;;;;;;8.41;93.33;99979.66;5093761;28;20107;-70
2022/01/04 01:27:17;;;;;;;19.17;9.07;;;;;;;8.41;92.75;99973.72;5093812;28;20031;-70
2022/01/04 01:29:43;;;;;;;18.35;8.73;;;;;;;8.40;93.06;99970.34;5074794;28;20363;-71
2022/01/04 01:32:09;;;;;;;16.63;8.95;;;;;;;8.38;92.43;99976.66;5093697;28;20445;-71
2022/01/04 01:34:35;;;;;;;21.17;9.00;;;;;;;8.34;92.45;99974.47;5075752;28;20024;-72
2022/01/04 01:37:00;;;;;;;27.38;9.35;;;;;;;8.32;93.01;99968.69;5094106;28;20451;-71
2022/01/04 01:39:25;;;;;;;18.75;9.27;;;;;;;8.33;92.56;99974.63;5075576;28;20448;-73
2022/01/04 01:41:51;;;;;;;24.90;9.68;;;;;;;8.28;93.01;99967.47;5093567;28;20043;-71
2022/01/04 01:44:16;;;;;;;23.70;10.27;;;;;;;8.32;93.17;99968.69;5093495;28;20031;-71
2022/01/04 01:46:42;;;;;;;22.23;9.43;;;;;;;8.35;92.71;99968.31;5094073;28;20016;-70
2022/01/04 01:49:07;;;;;;;21.55;9.52;;;;;;;8.29;93.07;99955.44;5075431;28;20054;-70
2022/01/04 01:51:33;;;;;;;19.13;10.15;;;;;;;8.28;93.18;99961.53;5094040;28;20020;-71
2022/01/04 01:54:00;;;;;;;21.00;9.68;;;;;;;8.26;93.41;99948.09;5093261;28;20028;-71
2022/01/04 01:56:26;;;;;;;20.20;9.95;;;;;;;8.31;93.79;99956.78;5093290;28;20051;-71
2022/01/04 01:58:52;;;;;;;25.98;10.75;;;;;;;8.33;93.18;99948.91;5075239;28;20111;-70
2022/01/04 02:01:17;;;;;;;19.45;9.50;;;;;;;8.31;93.11;99935.41;5093407;28;20036;-70
2022/01/04 02:03:42;;;;;;;21.90;10.98;;;;;;;8.29;92.86;99940.78;5093426;28;20012;-70
2022/01/04 02:06:08;;;;;;;25.55;11.48;;;;;;;8.31;92.75;99932.84;5093349;28;20081;-71
2022/01/04 02:08:34;;;;;;;22.05;10.85;;;;;;;8.31;93.21;99935.41;5075193;28;20054;-71
2022/01/04 02:11:01;;;;;;;21.77;11.35;;;;;;;8.23;92.84;99909.84;5093348;28;20382;-71
2022/01/04 02:13:27;;;;;;;18.95;10.80;;;;;;;8.35;92.68;99921.19;5093099;28;20031;-71
2022/01/04 02:15:58;;;;;;;25.08;10.48;;;;;;;8.38;93.07;99914.84;5093288;28;20462;-71
2022/01/04 02:18:23;;;;;;;20.38;10.52;;;;;;;8.39;92.73;99911.31;5075081;28;20024;-71
2022/01/04 02:20:49;;;;;;;20.42;10.63;;;;;;;8.43;92.99;99907.34;5075086;28;20032;-71
2022/01/04 02:23:15;;;;;;;21.23;10.68;;;;;;;8.43;92.61;99907.34;5093449;28;20379;-71
2022/01/04 02:25:41;;;;;;;21.95;11.00;;;;;;;8.47;93.05;99913.72;5093201;28;20106;-71
2022/01/04 02:28:06;;;;;;;19.70;10.77;;;;;;;8.49;92.17;99902.25;5092974;28;20024;-71
2022/01/04 02:30:32;;;;;;;20.35;11.70;;;;;;;8.36;92.50;99890.09;5093072;28;20152;-71
2022/01/04 02:32:57;;;;;;;21.48;11.68;;;;;;;8.31;93.37;99883.94;5075226;28;20086;-71
2022/01/04 02:35:30;;;;;;;20.13;11.23;;;;;;;8.31;93.42;99894.22;5075007;28;20390;-70
2022/01/04 02:37:57;;;;;;;20.25;10.88;;;;;;;8.34;93.88;99886.13;5093357;28;20161;-71
2022/01/04 02:40:24;;;;;;;21.38;11.75;;;;;;;8.27;93.88;99886.09;5075818;28;20169;-71
2022/01/04 02:42:50;;;;;;;22.13;12.18;;;;;;;8.19;93.46;99885.47;5096862;28;20053;-71
2022/01/04 02:45:15;;;;;;;19.92;12.93;;;;;;;8.28;94.02;99890.25;5096725;28;20053;-71
2022/01/04 02:47:40;;;;;;;23.05;11.98;;;;;;;8.28;93.67;99869.66;5078470;28;20495;-71
2022/01/04 02:50:07;;;;;;;22.70;11.60;;;;;;;8.39;94.18;99863.19;5096865;28;20031;-70
2022/01/04 02:52:34;;;;;;;21.58;11.48;;;;;;;8.32;93.75;99865.72;5097058;28;20106;-70
2022/01/04 02:55:00;;;;;;;18.27;10.88;;;;;;;8.24;94.10;99867.69;5096368;28;20168;-70
2022/01/04 02:57:26;;;;;;;21.13;12.02;;;;;;;8.27;93.96;99857.00;5078452;28;20100;-72
2022/01/04 02:59:51;;;;;;;24.25;11.95;;;;;;;8.25;94.78;99858.97;5096765;28;20077;-71
2022/01/04 03:02:16;;;;;;;20.33;12.10;;;;;;;8.25;93.90;99853.81;5078208;28;20016;-71
2022/01/04 03:04:42;;;;;;;23.48;11.55;;;;;;;8.24;93.79;99854.81;5096336;28;20415;-71
2022/01/04 03:07:07;;;;;;;23.92;12.27;;;;;;;8.17;94.34;99844.50;5078204;28;20470;-71
2022/01/04 03:09:33;;;;;;;21.80;12.02;;;;;;;8.28;93.37;99845.72;5078197;28;20378;-70
2022/01/04 03:11:58;;;;;;;25.90;12.07;;;;;;;8.16;93.47;99848.06;5096174;28;20386;-71
2022/01/04 03:14:24;;;;;;;24.48;12.00;;;;;;;8.18;94.33;99832.44;5096133;28;20382;-71
2022/01/04 03:16:49;;;;;;;26.50;11.85;;;;;;;8.25;93.67;99834.00;5077842;28;20016;-71
2022/01/04 03:19:14;;;;;;;21.73;11.98;;;;;;;8.24;93.26;99829.06;5096118;28;20027;-71
2022/01/04 03:21:42;;;;;;;20.95;11.93;;;;;;;8.23;93.28;99827.47;5096018;28;20020;-72
2022/01/04 03:24:09;;;;;;;22.05;11.85;;;;;;;8.24;94.20;99816.22;5095965;28;20028;-71
2022/01/04 03:26:35;;;;;;;27.33;12.60;;;;;;;8.27;93.98;99818.38;5095960;28;20020;-71
2022/01/04 03:29:01;;;;;;;27.42;13.20;;;;;;;8.18;93.47;99811.84;5095751;28;20032;-71
2022/01/04 03:31:30;;;;;;;19.70;12.10;;;;;;;8.20;93.86;99804.69;5095718;28;20202;-71
2022/01/04 03:33:56;;;;;;;27.77;12.07;;;;;;;8.20;93.20;99790.06;5095638;28;20024;-71
2022/01/04 03:36:24;;;;;;;27.45;13.20;;;;;;;8.20;94.14;99787.50;5096013;28;20107;-71
2022/01/04 03:38:50;;;;;;;21.67;12.00;;;;;;;8.14;93.57;99775.38;5077639;28;20415;-71
2022/01/04 03:41:16;;;;;;;25.85;13.43;;;;;;;8.17;93.01;99776.78;5095631;28;20028;-71
2022/01/04 03:43:42;;;;;;;22.52;12.68;;;;;;;8.23;93.66;99786.28;5077417;28;20043;-71
2022/01/04 03:46:07;;;;;;;23.55;12.93;;;;;;;8.16;93.20;99768.28;5077375;28;20027;-71
2022/01/04 03:48:34;;;;;;;22.35;12.57;;;;;;;8.07;93.49;99764.31;5095440;28;20077;-71
2022/01/04 03:51:00;;;;;;;21.55;12.93;;;;;;;8.09;93.67;99763.13;5095496;28;20028;-71
2022/01/04 03:53:26;;;;;;;28.77;13.43;;;;;;;8.04;93.89;99749.25;5095431;28;20039;-71
2022/01/04 03:55:51;;;;;;;21.40;13.25;;;;;;;8.07;94.43;99749.66;5077051;28;20039;-71
2022/01/04 03:58:17;;;;;;;23.02;13.35;;;;;;;8.07;94.08;99757.38;5095298;28;20123;-71
2022/01/04 04:00:42;;;;;;;24.90;13.77;;;;;;;8.09;94.42;99750.25;5077094;28;20020;-71
2022/01/04 04:03:07;;;;;;;22.05;13.50;;;;;;;8.11;93.60;99737.19;5095237;28;20044;-71
2022/01/04 04:05:33;;;;;;;25.63;13.60;;;;;;;8.15;93.65;99735.81;5095195;28;20020;-71
2022/01/04 04:07:58;;;;;;;22.85;13.80;;;;;;;8.04;93.76;99726.88;5095642;28;20078;-71
2022/01/04 04:10:23;;;;;;;22.48;12.75;;;;;;;8.02;94.02;99721.13;5095074;28;20448;-70
2022/01/04 04:12:48;;;;;;;23.10;13.95;;;;;;;8.09;93.75;99719.38;5095254;28;20034;-70
2022/01/04 04:15:14;;;;;;;21.88;12.88;;;;;;;8.17;93.69;99726.13;5095030;28;20020;-71
2022/01/04 04:17:39;;;;;;;20.20;12.57;;;;;;;8.16;93.54;99723.75;5076858;28;20016;-71
2022/01/04 04:20:05;;;;;;;26.60;11.93;;;;;;;8.09;93.28;99721.94;5094884;28;20024;-70
2022/01/04 04:22:31;;;;;;;24.77;12.68;;;;;;;8.06;94.16;99714.63;5095312;28;20069;-70
2022/01/04 04:24:57;;;;;;;22.17;12.52;;;;;;;8.12;93.74;99716.41;5094833;28;20027;-70
2022/01/04 04:27:22;;;;;;;23.45;12.45;;;;;;;8.10;93.60;99715.81;5094776;28;20016;-70
2022/01/04 04:29:48;;;;;;;22.95;12.73;;;;;;;8.17;93.49;99707.28;5094597;28;20038;-70
2022/01/04 04:32:13;;;;;;;20.05;12.00;;;;;;;8.13;93.63;99720.56;5094643;28;20020;-70
2022/01/04 04:34:39;;;;;;;21.38;12.88;;;;;;;8.17;93.93;99712.44;5094627;28;20379;-70
2022/01/04 04:37:04;;;;;;;23.77;12.35;;;;;;;8.13;93.94;99707.69;5094518;28;20028;-70
2022/01/04 04:39:30;;;;;;;24.17;12.88;;;;;;;8.20;94.07;99704.31;5094529;28;20111;-70
2022/01/04 04:41:55;;;;;;;22.85;12.65;;;;;;;8.20;93.71;99707.72;5094478;28;20024;-70
2022/01/04 04:44:20;;;;;;;21.48;12.60;;;;;;;8.25;93.53;99707.91;5094492;28;20031;-70
2022/01/04 04:46:46;;;;;;;22.75;12.25;;;;;;;8.18;93.28;99698.59;5076264;28;20042;-70
2022/01/04 04:49:11;;;;;;;25.05;12.13;;;;;;;8.20;93.40;99688.88;5094411;28;20028;-71
2022/01/04 04:51:38;;;;;;;24.02;11.45;;;;;;;8.16;92.85;99688.50;5094332;28;20441;-71
2022/01/04 04:54:04;;;;;;;19.55;12.10;;;;;;;8.06;93.47;99681.19;5094268;28;20024;-71
2022/01/04 04:56:29;;;;;;;22.65;12.57;;;;;;;8.13;93.76;99694.03;5075909;28;20082;-71
2022/01/04 04:58:55;;;;;;;27.08;12.10;;;;;;;8.01;93.17;99683.53;5094263;28;20530;-72
2022/01/04 05:01:20;;;;;;;19.23;11.32;;;;;;;8.06;93.53;99682.97;5075952;28;20036;-71
2022/01/04 05:03:45;;;;;;;23.55;11.80;;;;;;;8.13;93.87;99692.25;5094079;28;20098;-71
2022/01/04 05:06:11;;;;;;;24.13;12.02;;;;;;;8.01;92.92;99667.31;5075977;28;20086;-71
2022/01/04 05:08:36;;;;;;;22.08;11.27;;;;;;;8.06;93.92;99670.88;5094016;28;20032;-69
2022/01/04 05:11:02;;;;;;;24.30;11.60;;;;;;;8.06;92.90;99673.47;5094300;28;20027;-71
2022/01/04 05:13:27;;;;;;;22.00;12.23;;;;;;;8.14;92.74;99667.31;5075752;28;20031;-70
2022/01/04 05:15:53;;;;;;;22.15;11.82;;;;;;;8.09;93.17;99655.03;5093874;28;20107;-70
2022/01/04 05:18:19;;;;;;;19.10;11.40;;;;;;;8.20;93.30;99663.97;5093862;28;20020;-70
2022/01/04 05:20:44;;;;;;;23.38;12.30;;;;;;;8.15;93.10;99666.34;5075670;28;20045;-70
2022/01/04 05:23:09;;;;;;;20.02;12.18;;;;;;;8.13;92.78;99660.59;5093746;28;20043;-71
2022/01/04 05:25:35;;;;;;;19.85;12.05;;;;;;;8.09;92.88;99642.19;5075564;28;20474;-70
2022/01/04 05:28:00;;;;;;;22.40;11.82;;;;;;;8.14;93.11;99647.53;5093764;28;20023;-71
2022/01/04 05:30:25;;;;;;;26.25;12.02;;;;;;;8.07;92.92;99649.31;5093725;28;20394;-71
2022/01/04 05:32:50;;;;;;;20.55;11.90;;;;;;;8.08;92.09;99632.06;5075546;28;20024;-72
2022/01/04 05:35:16;;;;;;;20.95;11.75;;;;;;;8.14;92.95;99650.09;5094211;28;20103;-69
2022/01/04 05:37:41;;;;;;;19.70;11.68;;;;;;;8.08;92.58;99642.38;5075513;28;20077;-71
2022/01/04 05:40:07;;;;;;;23.17;11.80;;;;;;;8.06;92.82;99652.88;5075603;28;20027;-70
2022/01/04 05:42:32;;;;;;;24.90;13.27;;;;;;;7.94;93.54;99639.03;5075334;28;20107;-71
2022/01/04 05:44:58;;;;;;;26.70;13.10;;;;;;;7.98;94.42;99632.47;5093522;28;20079;-69
2022/01/04 05:47:24;;;;;;;24.42;13.18;;;;;;;7.99;94.21;99636.63;5075369;28;20024;-69
2022/01/04 05:49:50;;;;;;;24.48;14.57;;;;;;;8.01;94.18;99639.81;5093504;28;20020;-70
2022/01/04 05:52:16;;;;;;;22.92;13.95;;;;;;;7.97;94.13;99638.63;5075269;28;20059;-70
2022/01/04 05:54:43;;;;;;;28.70;14.43;;;;;;;7.94;94.42;99627.91;5093279;28;20028;-70
2022/01/04 05:57:08;;;;;;;24.05;14.30;;;;;;;7.95;94.71;99634.66;5093437;28;20020;-70
2022/01/04 05:59:34;;;;;;;30.20;15.32;;;;;;;7.97;94.14;99636.06;5093309;28;20073;-70
2022/01/04 06:01:59;;;;;;;28.77;14.63;;;;;;;7.95;94.39;99632.09;5093335;28;20096;-71
2022/01/04 06:04:24;;;;;;;29.80;14.68;;;;;;;7.99;93.90;99633.28;5093792;28;20039;-71
2022/01/04 06:06:51;;;;;;;28.85;15.68;;;;;;;7.93;94.46;99621.19;5075268;28;20471;-71
2022/01/04 06:09:24;;;;;;;29.00;15.05;;;;;;;7.95;95.10;99620.00;5093533;28;20032;-71
2022/01/04 06:16:59;;;;;;;27.80;15.50;;;;;;;7.80;95.50;99619.44;5097248;28;20043;-71
2022/01/04 06:19:24;;;;;;;29.52;16.15;;;;;;;7.85;94.64;99606.75;5097294;28;20103;-72
2022/01/04 06:21:50;;;;;;;24.83;14.93;;;;;;;7.88;94.82;99609.72;5097232;28;20411;-72
2022/01/04 06:24:15;;;;;;;32.80;15.88;;;;;;;7.88;94.82;99619.22;5097156;28;20144;-71
2022/01/04 06:26:40;;;;;;;35.10;15.93;;;;;;;7.85;94.86;99622.19;5078996;28;20016;-71
2022/01/04 06:29:08;;;;;;;29.30;16.08;;;;;;;7.84;94.51;99611.09;5097133;28;20024;-70
2022/01/04 06:31:33;;;;;;;28.92;15.90;;;;;;;7.78;95.19;99600.81;5097007;28;20039;-72
2022/01/04 06:33:58;;;;;;;28.48;15.82;;;;;;;7.78;95.09;99604.19;5078755;28;20398;-72
2022/01/04 06:36:24;;;;;;;29.38;16.85;;;;;;;7.83;95.12;99619.03;5097513;28;20034;-72
2022/01/04 06:38:49;;;;;;;30.65;14.75;;;;;;;7.67;94.98;99589.31;5078722;28;20020;-71
2022/01/04 06:41:15;;;;;;;27.38;16.10;;;;;;;7.84;94.50;99595.66;5096855;28;20098;-72
2022/01/04 06:43:40;;;;;;;30.40;16.20;;;;;;;7.89;94.05;99601.00;5096799;28;20024;-72
2022/01/04 06:46:05;;;;;;;34.13;15.25;;;;;;;7.94;94.00;99589.31;5096792;28;20042;-72
2022/01/04 06:48:31;;;;;;;28.95;15.55;;;;;;;7.86;94.26;99574.91;5096975;28;20024;-71
2022/01/04 06:50:57;;;;;;;28.58;15.27;;;;;;;7.84;94.49;99582.81;5096737;28;20076;-72
2022/01/04 06:53:22;;;;;;;27.40;14.68;;;;;;;7.89;94.16;99566.78;5078249;28;20103;-72
2022/01/04 06:55:50;;;;;;;26.08;13.95;;;;;;;7.82;94.43;99569.34;5078210;28;20086;-72
2022/01/04 06:58:16;;;;;;;26.83;15.07;;;;;;;7.94;94.49;99572.13;5096492;28;20027;-72
2022/01/04 07:00:42;;;;;;;23.27;13.50;;;;;;;7.97;93.89;99563.19;5095089;28;20028;-72
2022/01/04 07:03:07;;;;;;;29.15;14.13;;;;;;;7.86;94.23;99560.25;5096251;28;20031;-72
2022/01/04 07:05:35;;;;;;;31.65;14.80;;;;;;;7.90;94.09;99578.66;5077556;28;20363;-72
2022/01/04 07:08:01;;;;;;;25.88;14.27;;;;;;;7.90;94.05;99581.22;5095439;28;20031;-73
2022/01/04 07:10:26;;;;;;;23.77;14.48;;;;;;;7.83;93.91;99573.50;5096087;28;20024;-72
2022/01/04 07:12:51;;;;;;;23.00;14.15;;;;;;;7.90;94.24;99570.94;5096133;28;20031;-73
2022/01/04 07:15:17;;;;;;;26.77;14.35;;;;;;;7.90;93.98;99565.78;5096045;28;20035;-72
2022/01/04 07:17:42;;;;;;;23.52;13.73;;;;;;;7.95;93.84;99566.00;5096571;28;20116;-71
2022/01/04 07:20:08;;;;;;;22.83;12.95;;;;;;;7.85;93.42;99557.88;5096002;28;20016;-72
2022/01/04 07:22:34;;;;;;;22.30;13.27;;;;;;;7.88;94.09;99558.28;5095716;28;20024;-72
2022/01/04 07:24:59;;;;;;;29.42;14.55;;;;;;;7.82;94.35;99553.91;5096944;28;20024;-72
2022/01/04 07:27:24;;;;;;;30.17;13.75;;;;;;;7.87;94.71;99540.47;5094234;28;20028;-72
2022/01/04 07:29:50;;;;;;;26.60;14.00;;;;;;;7.84;95.28;99540.88;5096593;28;20061;-71
2022/01/04 07:32:15;;;;;;;28.38;14.35;;;;;;;7.86;95.31;99541.47;5078282;28;20031;-71
2022/01/04 07:34:40;;;;;;;26.95;14.27;;;;;;;7.74;95.19;99527.59;5077922;28;20547;-72
2022/01/04 07:37:06;;;;;;;24.95;14.50;;;;;;;7.85;95.32;99545.00;5077681;28;20071;-70
2022/01/04 07:39:31;;;;;;;29.42;15.95;;;;;;;7.85;95.52;99558.69;5095743;28;20031;-72
2022/01/04 07:41:57;;;;;;;28.08;15.18;;;;;;;7.83;95.27;99552.94;5095808;28;20031;-73
2022/01/04 07:44:23;;;;;;;24.90;14.48;;;;;;;7.86;95.45;99544.81;5077508;28;20047;-72
2022/01/04 07:46:48;;;;;;;26.55;15.55;;;;;;;7.85;94.78;99542.44;5095646;28;20106;-73
2022/01/04 07:49:15;;;;;;;32.28;16.08;;;;;;;7.86;94.68;99546.59;5095098;28;20028;-71
2022/01/04 07:51:41;;;;;;;27.17;15.93;;;;;;;7.86;94.93;99541.47;5095520;28;20024;-72
2022/01/04 07:54:06;;;;;;;26.83;15.45;;;;;;;7.82;95.34;99553.13;5077048;28;20039;-73
2022/01/04 07:56:32;;;;;;;37.20;16.55;;;;;;;7.84;95.98;99556.28;5095706;28;20075;-70
2022/01/04 07:59:00;;;;;;;28.85;16.40;;;;;;;7.75;95.83;99558.28;5077300;28;20024;-71
2022/01/04 08:01:29;;;;;;;28.52;15.88;;;;;;;7.68;96.46;99540.28;5077250;28;20531;-71
2022/01/04 08:03:55;;;;;;;15.68;8.20;;;;;;;7.58;92.81;99564.81;5095553;28;20091;-73
2022/01/04 08:06:20;;;;;;;16.85;8.98;;;;;;;7.62;93.38;99560.84;5095222;28;20075;-71
2022/01/04 08:08:45;;;;;;;24.33;12.57;;;;;;;7.68;95.11;99550.56;5077122;28;20410;-72
2022/01/04 08:11:11;;;;;;;21.75;12.88;;;;;;;7.78;94.84;99546.81;5095106;28;20045;-71
2022/01/04 08:13:36;;;;;;;26.10;14.70;;;;;;;7.79;94.71;99558.66;5095460;28;20020;-71
2022/01/04 08:16:02;;;;;;;24.27;14.02;;;;;;;7.80;94.95;99542.25;5095462;28;20027;-73
2022/01/04 08:18:27;;;;;;;26.48;14.45;;;;;;;7.78;95.17;99534.72;5095204;28;20020;-72
2022/01/04 08:20:56;;;;;;;28.95;15.10;;;;;;;7.67;95.28;99522.47;5095016;28;20382;-71
2022/01/04 08:23:22;;;;;;;22.40;14.05;;;;;;;7.84;95.25;99548.59;5076733;28;20102;-72
2022/01/04 08:25:48;;;;;;;27.05;14.85;;;;;;;7.76;95.63;99546.22;5094861;28;20063;-73
2022/01/04 08:28:13;;;;;;;26.30;14.65;;;;;;;7.81;95.42;99546.41;5095007;28;20027;-71
2022/01/04 08:30:38;;;;;;;25.90;14.30;;;;;;;7.74;95.28;99555.88;5097506;28;20462;-75
2022/01/04 08:33:04;;;;;;;25.45;12.77;;;;;;;7.77;94.77;99561.44;5081652;28;20119;-79
2022/01/04 08:35:29;;;;;;;20.55;12.00;;;;;;;7.79;94.94;99563.81;5095792;28;20107;-73
2022/01/04 08:37:54;;;;;;;17.27;10.20;;;;;;;7.78;93.96;99560.44;5094353;28;20063;-71
2022/01/04 08:40:20;;;;;;;16.50;10.25;;;;;;;7.85;94.08;99565.59;5095280;28;20409;-71
2022/01/04 08:42:45;;;;;;;19.80;9.98;;;;;;;7.79;93.98;99568.94;5076378;28;20097;-71
2022/01/04 08:45:11;;;;;;;17.77;9.50;;;;;;;7.88;93.81;99578.88;5094493;28;20047;-73
2022/01/04 08:47:37;;;;;;;16.30;9.40;;;;;;;7.93;92.99;99577.47;5076174;28;20038;-72
2022/01/04 08:50:05;;;;;;;15.27;8.98;;;;;;;7.93;92.57;99580.81;5076228;28;20024;-71
2022/01/04 08:52:31;;;;;;;17.38;9.27;;;;;;;7.99;92.77;99584.38;5094930;28;20036;-71
2022/01/04 08:54:56;;;;;;;21.48;10.85;;;;;;;8.01;92.81;99588.34;5075954;28;20030;-72
2022/01/04 08:57:22;;;;;;;18.48;9.88;;;;;;;7.97;93.08;99584.59;5094933;28;20027;-71
2022/01/04 08:59:48;;;;;;;17.42;9.88;;;;;;;7.95;93.45;99594.28;5076077;28;20040;-73
2022/01/04 09:02:13;;;;;;;19.27;10.25;;;;;;;7.98;94.13;99593.09;5094311;28;20048;-73
2022/01/04 09:04:39;;;;;;;18.88;9.77;;;;;;;8.01;93.48;99583.19;5094149;28;20039;-73
2022/01/04 09:07:04;;;;;;;17.65;10.32;;;;;;;8.06;94.13;99587.75;5094037;28;20027;-74
2022/01/04 09:09:30;;;;;;;23.05;10.70;;;;;;;8.09;93.46;99580.44;5094092;28;20024;-73
2022/01/04 09:11:55;;;;;;;23.02;10.80;;;;;;;8.01;93.74;99590.13;5093851;28;20032;-72
2022/01/04 09:14:26;;;;;;;27.48;10.90;;;;;;;8.09;93.88;99582.22;5093895;28;20039;-72
2022/01/04 09:19:36;;;;;;;25.20;12.15;;;;;;;8.02;94.45;99559.03;5094008;28;20035;-72
2022/01/04 09:22:03;;;;;;;20.40;11.15;;;;;;;8.24;94.78;99579.41;5093891;28;20032;-73
2022/01/04 09:24:29;;;;;;;25.98;11.57;;;;;;;8.27;94.52;99594.47;5093267;28;20023;-72
2022/01/04 09:26:55;;;;;;;27.25;12.05;;;;;;;8.21;94.52;99596.06;5093885;28;20070;-72
2022/01/04 09:29:20;;;;;;;26.65;12.55;;;;;;;8.27;94.48;99590.09;5075952;28;20016;-73
2022/01/04 09:31:53;;;;;;;30.85;12.25;;;;;;;8.26;94.00;99564.56;5093520;28;20082;-71
2022/01/04 09:34:18;;;;;;;25.50;11.83;;;;;;;8.36;94.33;99573.44;5076101;28;20089;-72
2022/01/04 09:36:44;;;;;;;29.75;12.60;;;;;;;8.38;94.12;99587.91;5075694;28;20274;-73
2022/01/04 09:39:13;;;;;;;26.58;12.80;;;;;;;8.45;93.92;99581.78;5093716;28;20024;-72
2022/01/04 09:41:40;;;;;;;29.42;12.25;;;;;;;8.47;93.73;99586.72;5075439;28;20035;-72
2022/01/04 09:44:05;;;;;;;27.80;12.48;;;;;;;8.47;93.53;99584.94;5093053;28;20012;-72
2022/01/04 09:46:32;;;;;;;24.38;12.05;;;;;;;8.46;94.22;99582.56;5075817;28;20508;-71
2022/01/04 09:48:57;;;;;;;28.65;12.43;;;;;;;8.63;93.42;99582.91;5094001;28;20087;-73
2022/01/04 09:51:25;;;;;;;23.98;11.20;;;;;;;8.69;93.72;99580.34;5074748;28;20024;-72
2022/01/04 09:53:51;;;;;;;33.38;11.15;;;;;;;8.80;93.35;99582.28;5093401;28;20043;-73
2022/01/04 09:56:16;;;;;;;30.92;11.05;;;;;;;8.84;92.88;99581.88;5093228;28;20502;-74
2022/01/04 09:58:42;;;;;;;25.67;9.75;;;;;;;8.87;93.03;99587.41;5075213;28;20162;-73
2022/01/04 10:01:20;;;;;;;26.45;10.13;;;;;;;8.85;93.18;99591.16;5074977;28;20454;-75
2022/01/04 10:03:45;;;;;;;23.48;8.85;;;;;;;8.78;92.46;99588.63;5075570;28;20027;-72
2022/01/04 10:06:16;;;;;;;23.38;8.43;;;;;;;8.76;92.91;99591.38;5093693;28;20363;-71
2022/01/04 10:09:03;;;;;;;17.52;8.82;;;;;;;8.77;92.76;99595.53;5093750;28;20032;-74
2022/01/04 10:11:44;;;;;;;23.67;8.73;;;;;;;8.83;92.82;99583.63;5074958;28;20466;-73
2022/01/04 10:14:30;;;;;;;20.55;8.00;;;;;;;8.83;92.27;99583.63;5075063;28;20031;-71
2022/01/04 10:16:58;;;;;;;22.15;7.85;;;;;;;8.84;93.27;99584.44;5075004;28;20024;-72
2022/01/04 10:19:51;;;;;;;20.98;8.07;;;;;;;8.77;92.68;99587.81;5093143;28;20095;-72
2022/01/04 10:22:23;;;;;;;24.02;7.63;;;;;;;8.93;92.27;99585.78;5090735;28;20040;-71
2022/01/04 10:25:10;;;;;;;21.58;6.90;;;;;;;8.90;91.71;99576.69;5093164;28;20028;-71
2022/01/04 10:27:37;;;;;;;24.40;7.95;;;;;;;8.97;91.68;99574.84;5073862;28;20024;-71
2022/01/04 10:30:15;;;;;;;21.65;6.57;;;;;;;9.02;91.61;99577.59;5073733;28;20500;-73
2022/01/04 10:32:58;;;;;;;24.20;6.32;;;;;;;9.08;91.60;99567.47;5091787;28;20034;-72
2022/01/04 10:35:28;;;;;;;18.98;6.30;;;;;;;8.93;92.08;99572.91;5092064;28;20027;-72
2022/01/04 10:37:55;;;;;;;24.60;6.00;;;;;;;8.94;92.03;99566.75;5073833;28;20020;-71
2022/01/04 10:40:21;;;;;;;26.00;6.25;;;;;;;8.85;92.21;99566.19;5092869;28;20134;-71
2022/01/04 10:42:47;;;;;;;20.10;4.88;;;;;;;8.86;91.58;99562.63;5092256;28;20030;-71
2022/01/04 10:45:25;;;;;;;26.40;5.10;;;;;;;8.84;91.85;99566.41;5074561;28;20486;-71
2022/01/04 10:47:50;;;;;;;21.25;5.20;;;;;;;8.86;92.64;99562.63;5092996;28;20381;-72
2022/01/04 10:50:34;;;;;;;22.15;5.35;;;;;;;8.84;92.97;99574.13;5093142;28;20024;-71
2022/01/04 10:52:59;;;;;;;27.35;4.80;;;;;;;8.77;92.58;99567.19;5092786;28;20024;-71
2022/01/04 10:55:30;;;;;;;25.38;5.40;;;;;;;8.77;92.48;99574.13;5092648;28;20097;-72
2022/01/04 10:57:56;;;;;;;15.60;3.10;;;;;;;8.74;89.83;99587.44;5093216;28;20020;-72
2022/01/04 11:00:22;;;;;;;17.08;2.75;;;;;;;8.84;88.07;99579.28;5092808;28;20024;-71
2022/01/04 11:02:48;;;;;;;12.02;2.88;;;;;;;8.80;87.45;99592.59;5095579;28;20086;-72
2022/01/04 11:05:15;;;;;;;11.45;2.53;;;;;;;8.55;87.57;99599.38;5078324;28;20039;-71
2022/01/04 11:08:08;;;;;;;5.07;1.30;;;;;;;8.50;87.49;99604.34;5096745;28;20382;-70
2022/01/04 11:10:35;;;;;;;7.25;1.50;;;;;;;8.42;88.39;99610.50;5096494;28;20040;-71
2022/01/04 11:13:02;;;;;;;6.35;1.35;;;;;;;8.45;87.29;99619.59;5078260;28;20513;-71
2022/01/04 11:15:28;;;;;;;7.30;1.45;;;;;;;8.43;87.86;99612.09;5078382;28;20054;-72
2022/01/04 11:17:56;;;;;;;5.95;1.63;;;;;;;8.33;89.84;99621.97;5097922;28;20035;-72
2022/01/04 11:20:22;;;;;;;4.20;1.70;;;;;;;8.32;88.82;99628.13;5077979;28;20024;-71
2022/01/04 11:22:49;;;;;;;5.97;1.85;;;;;;;8.03;89.29;99626.75;5096526;28;20382;-71
2022/01/04 11:25:17;;;;;;;5.32;2.08;;;;;;;7.99;89.34;99612.69;5096915;28;20020;-70
2022/01/04 11:27:43;;;;;;;7.15;1.80;;;;;;;8.13;89.71;99625.34;5096487;28;20466;-71
2022/01/04 11:30:15;;;;;;;7.55;1.75;;;;;;;8.18;89.25;99624.75;5093943;28;20020;-71
2022/01/04 11:32:44;;;;;;;7.75;2.40;;;;;;;8.26;89.38;99631.50;5077961;28;20016;-71
2022/01/04 11:35:22;;;;;;;4.70;2.00;;;;;;;8.16;88.92;99638.81;5096679;28;20051;-73
2022/01/04 11:37:59;;;;;;;4.47;1.77;;;;;;;8.19;87.70;99639.19;5077998;28;20048;-71
2022/01/04 11:40:31;;;;;;;6.93;2.25;;;;;;;8.00;89.86;99650.28;5077975;28;20047;-71